createdAt,value
2023-05-11T00:02:16.689Z,16.20
2023-05-11T00:04:44.744Z,16.20
2023-05-11T00:07:19.660Z,16.20
2023-05-11T00:09:51.670Z,16.10
2023-05-11T00:12:21.251Z,16.10
2023-05-11T00:14:55.197Z,16.10
2023-05-11T00:17:30.865Z,16.10
2023-05-11T00:20:01.562Z,16.20
2023-05-11T00:22:37.970Z,16.20
2023-05-11T00:25:08.634Z,16.10
2023-05-11T00:27:45.244Z,16.20
2023-05-11T00:30:17.016Z,16.20
2023-05-11T00:32:50.256Z,16.10
2023-05-11T00:35:25.282Z,16.20
2023-05-11T00:38:00.314Z,16.20
2023-05-11T00:40:36.942Z,16.20
2023-05-11T00:43:04.641Z,16.20
2023-05-11T00:45:36.482Z,16.20
2023-05-11T00:48:11.873Z,16.20
2023-05-11T00:50:47.718Z,16.20
2023-05-11T00:53:16.193Z,16.10
2023-05-11T00:55:47.997Z,16.10
2023-05-11T00:58:22.730Z,16.10
2023-05-11T01:00:51.839Z,16.10
2023-05-11T01:03:29.954Z,16.10
2023-05-11T01:06:49.421Z,16.10
2023-05-11T01:10:20.306Z,16.10
2023-05-11T01:13:10.142Z,16.00
2023-05-11T01:15:51.759Z,16.00
2023-05-11T01:18:48.870Z,16.00
2023-05-11T01:21:18.126Z,16.00
2023-05-11T01:24:29.876Z,16.00
2023-05-11T01:27:44.336Z,16.00
2023-05-11T01:30:57.814Z,16.00
2023-05-11T01:33:34.109Z,16.00
2023-05-11T01:36:10.451Z,15.90
2023-05-11T01:38:48.364Z,15.90
2023-05-11T01:41:30.916Z,15.80
2023-05-11T01:44:19.784Z,15.90
2023-05-11T01:46:55.532Z,15.90
2023-05-11T01:49:28.866Z,15.80
2023-05-11T01:52:01.802Z,15.90
2023-05-11T01:54:45.184Z,15.80
2023-05-11T01:57:26.939Z,15.80
2023-05-11T01:59:59.850Z,15.80
2023-05-11T02:02:29.526Z,15.80
2023-05-11T02:05:04.671Z,15.80
2023-05-11T02:07:36.385Z,15.80
2023-05-11T02:10:10.770Z,15.80
2023-05-11T02:12:43.238Z,15.80
2023-05-11T02:15:13.886Z,15.90
2023-05-11T02:17:47.946Z,15.80
2023-05-11T02:20:25.673Z,15.80
2023-05-11T02:23:00.743Z,15.80
2023-05-11T02:25:40.238Z,15.70
2023-05-11T02:28:13.069Z,15.70
2023-05-11T02:30:50.253Z,15.70
2023-05-11T02:33:29.829Z,15.70
2023-05-11T02:36:04.084Z,15.70
2023-05-11T02:38:36.898Z,15.70
2023-05-11T02:41:16.942Z,15.70
2023-05-11T02:43:53.386Z,15.60
2023-05-11T02:46:24.126Z,15.70
2023-05-11T02:48:57.891Z,15.70
2023-05-11T02:51:41.342Z,15.70
2023-05-11T02:54:10.969Z,15.70
2023-05-11T02:56:48.232Z,15.70
2023-05-11T02:59:23.069Z,15.60
2023-05-11T03:01:56.293Z,15.60
2023-05-11T03:04:26.001Z,15.50
2023-05-11T03:06:55.772Z,15.50
2023-05-11T03:09:26.513Z,15.60
2023-05-11T03:12:09.621Z,15.50
2023-05-11T03:14:42.676Z,15.50
2023-05-11T03:17:17.235Z,15.60
2023-05-11T03:19:50.962Z,15.50
2023-05-11T03:22:27.463Z,15.60
2023-05-11T03:24:58.154Z,15.60
2023-05-11T03:27:27.651Z,15.60
2023-05-11T03:29:59.127Z,15.60
2023-05-11T03:32:38.721Z,15.60
2023-05-11T03:35:18.721Z,15.70
2023-05-11T03:37:55.654Z,15.70
2023-05-11T03:40:31.659Z,15.60
2023-05-11T03:43:04.129Z,15.70
2023-05-11T03:45:37.724Z,15.60
2023-05-11T03:48:13.402Z,15.60
2023-05-11T03:50:45.546Z,15.60
2023-05-11T03:53:21.384Z,15.60
2023-05-11T03:55:59.150Z,15.50
2023-05-11T03:58:32.020Z,15.60
2023-05-11T04:01:09.087Z,15.60
2023-05-11T04:03:55.899Z,15.60
2023-05-11T04:06:26.062Z,15.60
2023-05-11T04:09:15.960Z,15.60
2023-05-11T04:11:45.774Z,15.70
2023-05-11T04:14:18.706Z,15.70
2023-05-11T04:16:49.248Z,15.60
2023-05-11T04:19:29.092Z,15.70
2023-05-11T04:22:01.423Z,15.70
2023-05-11T04:24:40.926Z,15.60
2023-05-11T04:27:15.125Z,15.60
2023-05-11T04:29:46.234Z,15.70
2023-05-11T04:32:22.424Z,15.70
2023-05-11T04:35:09.759Z,15.70
2023-05-11T04:37:46.586Z,15.70
2023-05-11T04:40:20.810Z,15.80
2023-05-11T04:42:51.002Z,15.80
2023-05-11T04:45:25.969Z,15.80
2023-05-11T04:47:55.937Z,15.80
2023-05-11T04:50:34.263Z,15.80
2023-05-11T04:53:05.901Z,15.80
2023-05-11T04:55:40.008Z,15.90
2023-05-11T04:58:10.732Z,15.90
2023-05-11T05:00:43.080Z,15.90
2023-05-11T05:03:12.947Z,15.90
2023-05-11T05:05:44.061Z,16.00
2023-05-11T05:08:20.495Z,16.00
2023-05-11T05:10:51.522Z,16.00
2023-05-11T05:13:21.026Z,15.90
2023-05-11T05:15:56.712Z,16.00
2023-05-11T05:18:28.680Z,16.10
2023-05-11T05:21:01.451Z,16.20
2023-05-11T05:23:37.600Z,16.10
2023-05-11T05:26:08.845Z,16.10
2023-05-11T05:28:54.082Z,16.10
2023-05-11T05:31:28.081Z,16.20
2023-05-11T05:34:11.046Z,16.20
2023-05-11T05:36:45.439Z,16.30
2023-05-11T05:39:18.270Z,16.30
2023-05-11T05:41:49.081Z,16.40
2023-05-11T05:44:21.612Z,16.50
2023-05-11T05:46:56.484Z,16.50
2023-05-11T05:49:29.770Z,16.50
2023-05-11T05:52:04.211Z,16.50
2023-05-11T05:54:40.009Z,16.50
2023-05-11T05:57:10.004Z,16.60
2023-05-11T05:59:44.491Z,16.60
2023-05-11T06:02:28.261Z,16.60
2023-05-11T06:05:04.644Z,16.70
2023-05-11T06:07:36.360Z,16.70
2023-05-11T06:10:21.320Z,16.80
2023-05-11T06:12:54.756Z,16.90
2023-05-11T06:15:26.113Z,17.00
2023-05-11T06:18:03.328Z,17.00
2023-05-11T06:20:40.397Z,17.00
2023-05-11T06:23:19.232Z,17.20
2023-05-11T06:25:53.326Z,17.20
2023-05-11T06:28:31.115Z,17.30
2023-05-11T06:31:06.120Z,17.30
2023-05-11T06:33:42.262Z,17.30
2023-05-11T06:36:22.641Z,17.40
2023-05-11T06:38:52.058Z,17.40
2023-05-11T06:41:29.704Z,17.40
2023-05-11T06:44:01.834Z,17.40
2023-05-11T06:46:39.613Z,17.40
2023-05-11T06:49:14.895Z,17.60
2023-05-11T06:51:59.887Z,17.60
2023-05-11T06:54:31.880Z,17.60
2023-05-11T06:57:06.445Z,17.70
2023-05-11T06:59:37.046Z,17.70
2023-05-11T07:02:05.995Z,17.90
2023-05-11T07:04:38.522Z,17.90
2023-05-11T07:07:20.217Z,17.90
2023-05-11T07:09:53.875Z,18.00
2023-05-11T07:12:34.349Z,18.20
2023-05-11T07:15:14.778Z,18.20
2023-05-11T07:17:53.790Z,18.30
2023-05-11T07:20:35.580Z,18.30
2023-05-11T07:23:13.833Z,18.30
2023-05-11T07:25:49.805Z,18.40
2023-05-11T07:28:21.041Z,18.40
2023-05-11T07:30:51.615Z,18.40
2023-05-11T07:33:25.813Z,18.40
2023-05-11T07:35:56.240Z,18.50
2023-05-11T07:38:29.344Z,18.50
2023-05-11T07:41:06.854Z,18.50
2023-05-11T07:43:41.064Z,18.50
2023-05-11T07:46:08.900Z,18.50
2023-05-11T07:48:42.512Z,18.50
2023-05-11T07:51:12.898Z,18.50
2023-05-11T07:53:47.146Z,18.60
2023-05-11T07:56:21.862Z,18.50
2023-05-11T07:58:52.908Z,18.60
2023-05-11T08:01:31.298Z,18.60
2023-05-11T08:04:05.651Z,18.70
2023-05-11T08:06:43.927Z,18.80
2023-05-11T08:09:15.761Z,18.90
2023-05-11T08:11:46.152Z,18.80
2023-05-11T08:14:15.970Z,18.70
2023-05-11T08:16:47.465Z,18.70
2023-05-11T08:19:19.624Z,18.80
2023-05-11T08:21:50.860Z,18.80
2023-05-11T08:24:21.402Z,18.70
2023-05-11T08:27:00.756Z,18.80
2023-05-11T08:29:41.405Z,19.00
2023-05-11T08:32:10.606Z,19.00
2023-05-11T08:34:42.112Z,19.00
2023-05-11T08:37:13.278Z,18.90
2023-05-11T08:39:47.898Z,18.80
2023-05-11T08:42:19.499Z,18.80
2023-05-11T08:44:51.222Z,18.80
2023-05-11T08:47:23.557Z,18.90
2023-05-11T08:50:03.187Z,18.80
2023-05-11T08:52:35.965Z,19.00
2023-05-11T08:55:05.727Z,19.10
2023-05-11T08:57:37.900Z,19.10
2023-05-11T09:00:11.664Z,19.00
2023-05-11T09:02:48.749Z,19.10
2023-05-11T09:05:19.362Z,19.00
2023-05-11T09:07:53.792Z,19.10
2023-05-11T09:10:38.911Z,19.10
2023-05-11T09:13:14.819Z,19.10
2023-05-11T09:15:49.121Z,19.00
2023-05-11T09:18:19.526Z,19.00
2023-05-11T09:20:50.233Z,19.00
2023-05-11T09:23:32.798Z,18.90
2023-05-11T09:26:02.402Z,18.90
2023-05-11T09:28:36.527Z,19.00
2023-05-11T09:31:05.342Z,19.00
2023-05-11T09:33:42.417Z,18.90
2023-05-11T09:36:26.088Z,18.80
2023-05-11T09:39:02.054Z,18.80
2023-05-11T09:41:35.754Z,18.70
2023-05-11T09:44:23.350Z,18.70
2023-05-11T09:46:54.581Z,18.70
2023-05-11T09:49:36.756Z,18.80
2023-05-11T09:52:19.667Z,18.80
2023-05-11T09:54:52.042Z,18.80
2023-05-11T09:57:31.825Z,18.90
2023-05-11T10:00:17.203Z,18.80
2023-05-11T10:02:45.497Z,18.70
2023-05-11T10:05:18.970Z,18.60
2023-05-11T10:07:58.422Z,18.40
2023-05-11T10:10:36.354Z,18.40
2023-05-11T10:13:07.208Z,18.30
2023-05-11T10:15:37.932Z,18.40
2023-05-11T10:18:12.395Z,18.40
2023-05-11T10:20:45.484Z,18.50
2023-05-11T10:23:19.407Z,18.50
2023-05-11T10:25:52.647Z,18.50
2023-05-11T10:28:22.874Z,18.50
2023-05-11T10:30:53.482Z,18.60
2023-05-11T10:33:30.284Z,18.50
2023-05-11T10:35:59.688Z,18.50
2023-05-11T10:38:35.614Z,18.60
2023-05-11T10:44:50.240Z,18.60
2023-05-11T10:47:20.361Z,18.50
2023-05-11T10:50:06.246Z,18.70
2023-05-11T10:53:16.045Z,18.70
2023-05-11T10:56:11.440Z,18.70
2023-05-11T10:59:19.071Z,18.70
2023-05-11T11:02:02.627Z,18.60
2023-05-11T11:04:52.370Z,18.50
2023-05-11T11:07:24.360Z,18.60
2023-05-11T11:10:05.535Z,18.50
2023-05-11T11:12:48.033Z,18.40
2023-05-11T11:15:19.147Z,18.40
2023-05-11T11:18:17.981Z,18.40
2023-05-11T11:20:50.301Z,18.40
2023-05-11T11:23:46.811Z,18.30
2023-05-11T11:26:19.403Z,18.40
2023-05-11T11:29:02.082Z,18.50
2023-05-11T11:31:38.212Z,18.50
2023-05-11T11:34:39.924Z,18.60
2023-05-11T11:37:14.136Z,18.60
2023-05-11T11:39:47.918Z,18.60
2023-05-11T11:42:39.103Z,18.50
2023-05-11T11:45:36.902Z,18.50
2023-05-11T11:48:20.678Z,18.40
2023-05-11T11:51:30.373Z,18.40
2023-05-11T11:54:26.134Z,18.50
2023-05-11T11:57:04.387Z,18.60
2023-05-11T11:59:49.506Z,18.70
2023-05-11T12:02:23.550Z,18.60
2023-05-11T12:04:58.706Z,18.50
2023-05-11T12:07:38.984Z,18.40
2023-05-11T12:10:12.607Z,18.20
2023-05-11T12:12:51.915Z,18.20
2023-05-11T12:15:34.179Z,18.10
2023-05-11T12:18:07.980Z,18.10
2023-05-11T12:20:39.449Z,18.10
2023-05-11T12:23:17.534Z,18.10
2023-05-11T12:26:07.113Z,18.10
2023-05-11T12:28:39.000Z,17.90
2023-05-11T12:31:12.587Z,17.90
2023-05-11T12:33:54.669Z,18.00
2023-05-11T12:36:31.748Z,17.80
2023-05-11T12:39:02.559Z,17.80
2023-05-11T12:41:36.144Z,17.70
2023-05-11T12:44:06.343Z,17.60
2023-05-11T12:46:39.727Z,17.40
2023-05-11T12:49:24.760Z,17.20
2023-05-11T12:52:12.796Z,17.10
2023-05-11T12:54:52.922Z,16.90
2023-05-11T12:57:31.326Z,16.80
2023-05-11T13:00:16.942Z,16.60
2023-05-11T13:02:55.189Z,16.50
2023-05-11T13:05:32.082Z,16.40
2023-05-11T13:08:05.282Z,16.30
2023-05-11T13:10:35.617Z,16.20
2023-05-11T13:13:10.876Z,16.10
2023-05-11T13:15:52.631Z,16.00
2023-05-11T13:18:20.833Z,16.00
2023-05-11T13:21:07.974Z,16.00
2023-05-11T13:23:37.570Z,15.90
2023-05-11T13:26:09.406Z,16.00
2023-05-11T13:28:41.873Z,16.00
2023-05-11T13:31:14.917Z,15.80
2023-05-11T13:33:42.662Z,15.90
2023-05-11T13:36:24.476Z,15.80
2023-05-11T13:38:56.623Z,15.90
2023-05-11T13:41:27.505Z,15.90
2023-05-11T13:44:03.656Z,16.00
2023-05-11T13:46:35.897Z,16.00
2023-05-11T13:49:13.904Z,16.10
2023-05-11T13:51:46.851Z,16.00
2023-05-11T13:54:23.656Z,15.90
2023-05-11T13:57:02.504Z,15.90
2023-05-11T13:59:44.915Z,15.90
2023-05-11T14:02:14.278Z,16.00
2023-05-11T14:04:45.314Z,16.00
2023-05-11T14:07:17.613Z,16.00
2023-05-11T14:09:51.507Z,16.00
2023-05-11T14:12:22.737Z,16.00
2023-05-11T14:14:52.883Z,15.90
2023-05-11T14:17:24.310Z,16.00
2023-05-11T14:19:57.083Z,16.00
2023-05-11T14:22:26.281Z,15.90
2023-05-11T14:24:55.223Z,15.90
2023-05-11T14:27:25.994Z,15.80
2023-05-11T14:29:55.334Z,15.90
2023-05-11T14:32:24.538Z,15.80
2023-05-11T14:34:53.837Z,15.70
2023-05-11T14:37:30.874Z,15.70
2023-05-11T14:40:12.694Z,15.70
2023-05-11T14:42:48.447Z,15.70
2023-05-11T14:45:20.361Z,15.60
2023-05-11T14:47:52.001Z,15.70
2023-05-11T14:50:22.724Z,15.60
2023-05-11T14:52:53.740Z,15.60
2023-05-11T14:55:30.105Z,15.70
2023-05-11T14:58:06.265Z,15.80
2023-05-11T15:00:41.966Z,15.80
2023-05-11T15:03:13.319Z,15.90
2023-05-11T15:05:44.370Z,15.90
2023-05-11T15:08:29.736Z,15.90
2023-05-11T15:11:04.890Z,16.00
2023-05-11T15:13:39.955Z,16.00
2023-05-11T15:16:17.826Z,16.00
2023-05-11T15:18:55.517Z,15.90
2023-05-11T15:21:35.100Z,15.90
2023-05-11T15:24:08.681Z,16.00
2023-05-11T15:26:39.597Z,15.90
2023-05-11T15:29:17.947Z,15.90
2023-05-11T15:31:55.958Z,16.00
2023-05-11T15:34:37.536Z,16.00
2023-05-11T15:37:15.596Z,16.00
2023-05-11T15:39:51.147Z,16.00
2023-05-11T15:42:20.546Z,16.00
2023-05-11T15:44:53.523Z,16.00
2023-05-11T15:47:25.357Z,15.90
2023-05-11T15:50:04.506Z,16.00
2023-05-11T15:52:39.942Z,16.00
2023-05-11T15:55:10.989Z,16.10
2023-05-11T15:57:47.075Z,16.10
2023-05-11T16:00:23.199Z,16.10
2023-05-11T16:02:53.525Z,16.10
2023-05-11T16:05:23.118Z,16.20
2023-05-11T16:07:51.581Z,16.20
2023-05-11T16:10:24.410Z,16.30
2023-05-11T16:12:58.807Z,16.20
2023-05-11T16:15:42.937Z,16.10
2023-05-11T16:18:17.675Z,16.10
2023-05-11T16:20:47.452Z,15.90
2023-05-11T16:23:17.495Z,15.90
2023-05-11T16:25:49.806Z,15.90
2023-05-11T16:28:21.850Z,15.80
2023-05-11T16:30:52.814Z,15.80
2023-05-11T16:33:31.308Z,15.70
2023-05-11T16:36:07.891Z,15.60
2023-05-11T16:38:41.693Z,15.60
2023-05-11T16:41:13.058Z,15.50
2023-05-11T16:43:48.053Z,15.50
2023-05-11T16:46:15.870Z,15.40
2023-05-11T16:48:48.235Z,15.30
2023-05-11T16:51:24.982Z,15.30
2023-05-11T16:53:54.186Z,15.40
2023-05-11T16:56:24.407Z,15.40
2023-05-11T16:58:57.743Z,15.40
2023-05-11T17:01:30.821Z,15.40
2023-05-11T17:03:59.954Z,15.40
2023-05-11T17:06:29.183Z,15.50
2023-05-11T17:09:00.143Z,15.50
2023-05-11T17:11:38.972Z,15.50
2023-05-11T17:14:09.226Z,15.40
2023-05-11T17:16:41.916Z,15.40
2023-05-11T17:19:24.430Z,15.40
2023-05-11T17:21:57.098Z,15.40
2023-05-11T17:24:37.105Z,15.40
2023-05-11T17:27:07.635Z,15.40
2023-05-11T17:29:44.266Z,15.40
2023-05-11T17:32:22.475Z,15.40
2023-05-11T17:34:53.762Z,15.40
2023-05-11T17:37:31.338Z,15.40
2023-05-11T17:40:03.671Z,15.30
2023-05-11T17:42:35.768Z,15.30
2023-05-11T17:45:16.194Z,15.20
2023-05-11T17:47:51.266Z,15.10
2023-05-11T17:50:25.449Z,15.10
2023-05-11T17:52:58.897Z,15.10
2023-05-11T17:55:36.070Z,15.10
2023-05-11T17:58:12.449Z,15.00
2023-05-11T18:00:48.698Z,14.90
2023-05-11T18:03:19.090Z,14.90
2023-05-11T18:05:53.609Z,14.90
2023-05-11T18:08:25.895Z,14.90
2023-05-11T18:10:58.515Z,14.80
2023-05-11T18:13:31.704Z,14.80
2023-05-11T18:16:01.447Z,14.80
2023-05-11T18:18:30.782Z,14.70
2023-05-11T18:21:10.921Z,14.80
2023-05-11T18:23:39.520Z,14.70
2023-05-11T18:26:19.062Z,14.70
2023-05-11T18:28:56.596Z,14.70
2023-05-11T18:31:26.202Z,14.60
2023-05-11T18:33:56.243Z,14.60
2023-05-11T18:36:28.441Z,14.60
2023-05-11T18:39:02.740Z,14.60
2023-05-11T18:41:33.934Z,14.60
2023-05-11T18:44:09.100Z,14.60
2023-05-11T18:49:25.317Z,14.50
2023-05-11T18:51:56.981Z,14.60
2023-05-11T18:54:34.590Z,14.50
2023-05-11T18:57:04.209Z,14.60
2023-05-11T18:59:44.053Z,14.50
2023-05-11T19:02:15.933Z,14.50
2023-05-11T19:04:57.743Z,14.60
2023-05-11T19:07:40.861Z,14.60
2023-05-11T19:10:18.576Z,14.60
2023-05-11T19:12:50.561Z,14.70
2023-05-11T19:15:32.343Z,14.60
2023-05-11T19:18:02.374Z,14.60
2023-05-11T19:20:42.132Z,14.50
2023-05-11T19:23:14.872Z,14.50
2023-05-11T19:25:45.928Z,14.50
2023-05-11T19:28:16.054Z,14.50
2023-05-11T19:30:50.119Z,14.50
2023-05-11T19:33:20.031Z,14.40
2023-05-11T19:38:45.147Z,14.50
2023-05-11T19:41:19.753Z,14.50
2023-05-11T19:43:49.003Z,14.50
2023-05-11T19:46:24.827Z,14.50
2023-05-11T19:48:54.971Z,14.50
2023-05-11T19:51:28.021Z,14.50
2023-05-11T19:54:02.410Z,14.40
2023-05-11T19:56:33.449Z,14.40
2023-05-11T19:59:05.286Z,14.40
2023-05-11T20:01:41.187Z,14.40
2023-05-11T20:04:16.331Z,14.40
2023-05-11T20:06:53.366Z,14.30
2023-05-11T20:09:32.357Z,14.30
2023-05-11T20:12:11.103Z,14.30
2023-05-11T20:14:43.781Z,14.20
2023-05-11T20:17:20.244Z,14.20
2023-05-11T20:19:51.105Z,14.30
2023-05-11T20:22:33.023Z,14.20
2023-05-11T20:25:18.364Z,14.20
2023-05-11T20:27:51.449Z,14.10
2023-05-11T20:30:20.463Z,14.10
2023-05-11T20:35:28.909Z,14.10
2023-05-11T20:37:59.911Z,14.10
2023-05-11T20:40:31.597Z,14.00
2023-05-11T20:43:04.319Z,14.10
2023-05-11T20:45:42.440Z,14.00
2023-05-11T20:48:11.120Z,14.00
2023-05-11T20:50:48.745Z,14.00
2023-05-11T20:53:20.539Z,14.00
2023-05-11T20:56:04.732Z,14.00
2023-05-11T20:58:35.893Z,14.00
2023-05-11T21:01:04.239Z,14.10
2023-05-11T21:03:38.548Z,14.10
2023-05-11T21:06:09.024Z,14.10
2023-05-11T21:08:40.232Z,14.10
2023-05-11T21:11:14.449Z,14.10
2023-05-11T21:13:44.240Z,14.10
2023-05-11T21:16:23.305Z,14.10
2023-05-11T21:18:52.915Z,14.10
2023-05-11T21:21:23.167Z,14.10
2023-05-11T21:23:56.082Z,14.20
2023-05-11T21:26:31.002Z,14.20
2023-05-11T21:29:01.047Z,14.10
2023-05-11T21:31:39.974Z,14.10
2023-05-11T21:34:14.358Z,14.20
2023-05-11T21:36:48.463Z,14.30
2023-05-11T21:39:19.163Z,14.20
2023-05-11T21:41:50.655Z,14.30
2023-05-11T21:44:29.908Z,14.30
2023-05-11T21:47:00.597Z,14.30
2023-05-11T21:49:31.148Z,14.30
2023-05-11T21:52:00.754Z,14.30
2023-05-11T21:54:30.560Z,14.30
2023-05-11T21:57:02.497Z,14.30
2023-05-11T21:59:32.305Z,14.30
2023-05-11T22:02:05.492Z,14.30
2023-05-11T22:04:42.390Z,14.30
2023-05-11T22:07:12.967Z,14.30
2023-05-11T22:09:43.552Z,14.30
2023-05-11T22:12:12.497Z,14.30
2023-05-11T22:14:42.862Z,14.40
2023-05-11T22:17:11.605Z,14.40
2023-05-11T22:19:50.839Z,14.40
2023-05-11T22:22:26.492Z,14.30
2023-05-11T22:25:02.203Z,14.30
2023-05-11T22:27:33.134Z,14.30
2023-05-11T22:30:13.547Z,14.40
2023-05-11T22:32:45.412Z,14.40
2023-05-11T22:35:27.070Z,14.40
2023-05-11T22:38:02.865Z,14.40
2023-05-11T22:40:30.190Z,14.40
2023-05-11T22:43:15.204Z,14.50
2023-05-11T22:45:45.957Z,14.40
2023-05-11T22:48:26.874Z,14.40
2023-05-11T22:50:59.363Z,14.40
2023-05-11T22:53:35.377Z,14.40
2023-05-11T22:56:10.396Z,14.40
2023-05-11T22:58:43.235Z,14.50
2023-05-11T23:01:17.533Z,14.40
2023-05-11T23:03:57.282Z,14.40
2023-05-11T23:06:25.598Z,14.50
2023-05-11T23:09:03.453Z,14.40
2023-05-11T23:11:43.679Z,14.40
2023-05-11T23:14:20.454Z,14.50
2023-05-11T23:16:50.735Z,14.40
2023-05-11T23:19:21.703Z,14.40
2023-05-11T23:21:52.692Z,14.40
2023-05-11T23:24:24.948Z,14.40
2023-05-11T23:27:06.427Z,14.40
2023-05-11T23:29:38.367Z,14.40
2023-05-11T23:32:09.801Z,14.40
2023-05-11T23:34:41.285Z,14.40
2023-05-11T23:37:23.334Z,14.40
2023-05-11T23:39:58.622Z,14.40
2023-05-11T23:42:40.182Z,14.40
2023-05-11T23:45:10.399Z,14.40
2023-05-11T23:47:47.003Z,14.50
2023-05-11T23:50:16.647Z,14.50
2023-05-11T23:52:47.268Z,14.50
2023-05-11T23:55:20.171Z,14.50
2023-05-11T23:57:51.246Z,14.50
